sensor_id;sensor_type;location;lat;lon;timestamp;P1;durP1;ratioP1;P2;durP2;ratioP2
23632;SDS011;11993;48.748;9.166;2023-02-28T00:00:20;6.32;;;2.97;;
23632;SDS011;11993;48.748;9.166;2023-02-28T00:02:47;5.05;;;2.35;;
23632;SDS011;11993;48.748;9.166;2023-02-28T00:05:13;5.55;;;2.60;;
23632;SDS011;11993;48.748;9.166;2023-02-28T00:07:41;4.05;;;2.47;;
23632;SDS011;11993;48.748;9.166;2023-02-28T00:10:09;6.60;;;2.95;;
23632;SDS011;11993;48.748;9.166;2023-02-28T00:12:36;3.65;;;2.30;;
23632;SDS011;11993;48.748;9.166;2023-02-28T00:15:05;5.50;;;3.08;;
23632;SDS011;11993;48.748;9.166;2023-02-28T00:17:31;5.93;;;3.35;;
23632;SDS011;11993;48.748;9.166;2023-02-28T00:19:57;5.28;;;2.80;;
23632;SDS011;11993;48.748;9.166;2023-02-28T00:22:34;4.68;;;2.42;;
23632;SDS011;11993;48.748;9.166;2023-02-28T00:25:01;4.68;;;2.63;;
23632;SDS011;11993;48.748;9.166;2023-02-28T00:27:27;3.35;;;2.17;;
23632;SDS011;11993;48.748;9.166;2023-02-28T00:29:52;5.88;;;2.60;;
23632;SDS011;11993;48.748;9.166;2023-02-28T00:32:19;4.88;;;2.50;;
23632;SDS011;11993;48.748;9.166;2023-02-28T00:34:44;4.95;;;2.58;;
23632;SDS011;11993;48.748;9.166;2023-02-28T00:37:10;5.47;;;2.60;;
23632;SDS011;11993;48.748;9.166;2023-02-28T00:39:39;5.03;;;2.30;;
23632;SDS011;11993;48.748;9.166;2023-02-28T00:42:06;4.82;;;2.40;;
23632;SDS011;11993;48.748;9.166;2023-02-28T00:44:32;5.53;;;2.47;;
23632;SDS011;11993;48.748;9.166;2023-02-28T00:46:58;4.50;;;2.35;;
23632;SDS011;11993;48.748;9.166;2023-02-28T00:49:27;4.68;;;2.45;;
23632;SDS011;11993;48.748;9.166;2023-02-28T00:51:53;5.22;;;2.55;;
23632;SDS011;11993;48.748;9.166;2023-02-28T00:54:20;4.18;;;2.30;;
23632;SDS011;11993;48.748;9.166;2023-02-28T00:56:46;5.60;;;2.90;;
23632;SDS011;11993;48.748;9.166;2023-02-28T00:59:13;9.38;;;3.03;;
23632;SDS011;11993;48.748;9.166;2023-02-28T01:01:40;4.60;;;2.42;;
23632;SDS011;11993;48.748;9.166;2023-02-28T01:04:06;3.88;;;2.33;;
23632;SDS011;11993;48.748;9.166;2023-02-28T01:06:31;4.72;;;2.63;;
23632;SDS011;11993;48.748;9.166;2023-02-28T01:08:57;6.28;;;2.88;;
23632;SDS011;11993;48.748;9.166;2023-02-28T01:11:23;5.72;;;2.70;;
23632;SDS011;11993;48.748;9.166;2023-02-28T01:13:49;6.88;;;3.03;;
23632;SDS011;11993;48.748;9.166;2023-02-28T01:16:15;4.43;;;2.60;;
23632;SDS011;11993;48.748;9.166;2023-02-28T01:18:41;6.00;;;2.78;;
23632;SDS011;11993;48.748;9.166;2023-02-28T01:21:08;10.15;;;3.40;;
23632;SDS011;11993;48.748;9.166;2023-02-28T01:23:37;4.95;;;2.42;;
23632;SDS011;11993;48.748;9.166;2023-02-28T01:28:58;5.32;;;2.60;;
23632;SDS011;11993;48.748;9.166;2023-02-28T01:31:24;4.60;;;2.67;;
23632;SDS011;11993;48.748;9.166;2023-02-28T01:33:50;5.10;;;2.90;;
23632;SDS011;11993;48.748;9.166;2023-02-28T01:36:17;4.10;;;2.58;;
23632;SDS011;11993;48.748;9.166;2023-02-28T01:38:44;5.43;;;3.03;;
23632;SDS011;11993;48.748;9.166;2023-02-28T01:41:19;4.25;;;2.95;;
23632;SDS011;11993;48.748;9.166;2023-02-28T01:46:13;5.95;;;3.15;;
23632;SDS011;11993;48.748;9.166;2023-02-28T01:48:40;6.45;;;3.20;;
23632;SDS011;11993;48.748;9.166;2023-02-28T01:51:11;6.45;;;2.78;;
23632;SDS011;11993;48.748;9.166;2023-02-28T01:53:42;4.75;;;2.58;;
23632;SDS011;11993;48.748;9.166;2023-02-28T01:56:12;5.70;;;2.75;;
23632;SDS011;11993;48.748;9.166;2023-02-28T01:58:45;5.72;;;2.75;;
23632;SDS011;11993;48.748;9.166;2023-02-28T02:01:15;5.38;;;2.90;;
23632;SDS011;11993;48.748;9.166;2023-02-28T02:03:55;7.05;;;3.08;;
23632;SDS011;11993;48.748;9.166;2023-02-28T02:06:31;5.10;;;2.80;;
23632;SDS011;11993;48.748;9.166;2023-02-28T02:09:02;5.07;;;2.50;;
23632;SDS011;11993;48.748;9.166;2023-02-28T02:11:28;5.80;;;2.80;;
23632;SDS011;11993;48.748;9.166;2023-02-28T02:25:21;7.97;;;2.88;;
23632;SDS011;11993;48.748;9.166;2023-02-28T02:27:58;7.43;;;2.95;;
23632;SDS011;11993;48.748;9.166;2023-02-28T02:30:59;4.95;;;3.20;;
23632;SDS011;11993;48.748;9.166;2023-02-28T02:36:28;7.88;;;3.15;;
23632;SDS011;11993;48.748;9.166;2023-02-28T02:39:19;4.35;;;2.70;;
23632;SDS011;11993;48.748;9.166;2023-02-28T02:41:55;4.70;;;3.15;;
23632;SDS011;11993;48.748;9.166;2023-02-28T02:44:29;5.95;;;3.50;;
23632;SDS011;11993;48.748;9.166;2023-02-28T02:47:08;9.23;;;3.83;;
23632;SDS011;11993;48.748;9.166;2023-02-28T02:49:40;5.00;;;3.30;;
23632;SDS011;11993;48.748;9.166;2023-02-28T02:52:11;6.82;;;3.15;;
23632;SDS011;11993;48.748;9.166;2023-02-28T02:54:43;5.28;;;3.40;;
23632;SDS011;11993;48.748;9.166;2023-02-28T02:57:13;5.88;;;3.38;;
23632;SDS011;11993;48.748;9.166;2023-02-28T02:59:49;6.20;;;3.67;;
23632;SDS011;11993;48.748;9.166;2023-02-28T03:02:16;6.35;;;3.47;;
23632;SDS011;11993;48.748;9.166;2023-02-28T03:04:45;7.40;;;3.78;;
23632;SDS011;11993;48.748;9.166;2023-02-28T03:07:16;6.22;;;3.33;;
23632;SDS011;11993;48.748;9.166;2023-02-28T03:09:49;6.20;;;3.10;;
23632;SDS011;11993;48.748;9.166;2023-02-28T03:12:19;6.05;;;3.83;;
23632;SDS011;11993;48.748;9.166;2023-02-28T03:17:40;5.72;;;3.72;;
23632;SDS011;11993;48.748;9.166;2023-02-28T03:23:19;6.40;;;3.67;;
23632;SDS011;11993;48.748;9.166;2023-02-28T03:31:44;9.60;;;4.00;;
23632;SDS011;11993;48.748;9.166;2023-02-28T03:37:03;6.70;;;4.18;;
23632;SDS011;11993;48.748;9.166;2023-02-28T03:39:34;7.13;;;3.65;;
23632;SDS011;11993;48.748;9.166;2023-02-28T03:44:42;6.68;;;3.80;;
23632;SDS011;11993;48.748;9.166;2023-02-28T03:47:32;8.32;;;3.97;;
23632;SDS011;11993;48.748;9.166;2023-02-28T03:50:22;8.70;;;4.28;;
23632;SDS011;11993;48.748;9.166;2023-02-28T03:53:01;9.30;;;3.67;;
23632;SDS011;11993;48.748;9.166;2023-02-28T03:55:34;8.70;;;3.95;;
23632;SDS011;11993;48.748;9.166;2023-02-28T04:01:15;6.15;;;4.45;;
23632;SDS011;11993;48.748;9.166;2023-02-28T04:03:49;5.35;;;3.72;;
23632;SDS011;11993;48.748;9.166;2023-02-28T04:06:17;10.10;;;4.25;;
23632;SDS011;11993;48.748;9.166;2023-02-28T04:08:44;5.00;;;4.00;;
23632;SDS011;11993;48.748;9.166;2023-02-28T04:13:52;6.85;;;4.20;;
23632;SDS011;11993;48.748;9.166;2023-02-28T04:16:18;11.77;;;4.40;;
23632;SDS011;11993;48.748;9.166;2023-02-28T04:18:43;5.70;;;3.65;;
23632;SDS011;11993;48.748;9.166;2023-02-28T04:21:09;5.65;;;3.92;;
23632;SDS011;11993;48.748;9.166;2023-02-28T04:23:35;5.55;;;3.65;;
23632;SDS011;11993;48.748;9.166;2023-02-28T04:26:01;8.15;;;3.60;;
23632;SDS011;11993;48.748;9.166;2023-02-28T04:28:27;6.85;;;4.32;;
23632;SDS011;11993;48.748;9.166;2023-02-28T04:30:59;7.88;;;4.45;;
23632;SDS011;11993;48.748;9.166;2023-02-28T04:33:27;4.57;;;3.55;;
23632;SDS011;11993;48.748;9.166;2023-02-28T04:36:08;6.50;;;4.05;;
23632;SDS011;11993;48.748;9.166;2023-02-28T04:38:35;6.45;;;3.97;;
23632;SDS011;11993;48.748;9.166;2023-02-28T04:41:01;6.95;;;4.10;;
23632;SDS011;11993;48.748;9.166;2023-02-28T04:43:28;8.80;;;3.80;;
23632;SDS011;11993;48.748;9.166;2023-02-28T04:45:54;6.93;;;4.05;;
23632;SDS011;11993;48.748;9.166;2023-02-28T04:48:24;7.57;;;4.30;;
23632;SDS011;11993;48.748;9.166;2023-02-28T04:50:51;6.80;;;4.07;;
23632;SDS011;11993;48.748;9.166;2023-02-28T04:53:16;8.25;;;4.40;;
23632;SDS011;11993;48.748;9.166;2023-02-28T04:55:42;7.88;;;4.45;;
23632;SDS011;11993;48.748;9.166;2023-02-28T04:58:08;7.25;;;4.53;;
23632;SDS011;11993;48.748;9.166;2023-02-28T05:00:34;8.73;;;4.68;;
23632;SDS011;11993;48.748;9.166;2023-02-28T05:03:00;7.80;;;4.82;;
23632;SDS011;11993;48.748;9.166;2023-02-28T05:05:25;11.48;;;4.38;;
23632;SDS011;11993;48.748;9.166;2023-02-28T05:07:51;7.82;;;4.25;;
23632;SDS011;11993;48.748;9.166;2023-02-28T05:10:18;8.10;;;4.75;;
23632;SDS011;11993;48.748;9.166;2023-02-28T05:12:44;9.63;;;4.20;;
23632;SDS011;11993;48.748;9.166;2023-02-28T05:15:14;7.75;;;4.43;;
23632;SDS011;11993;48.748;9.166;2023-02-28T05:17:40;9.27;;;4.40;;
23632;SDS011;11993;48.748;9.166;2023-02-28T05:20:06;6.95;;;4.40;;
23632;SDS011;11993;48.748;9.166;2023-02-28T05:22:36;8.93;;;5.03;;
23632;SDS011;11993;48.748;9.166;2023-02-28T05:25:03;8.88;;;4.85;;
23632;SDS011;11993;48.748;9.166;2023-02-28T05:27:32;9.85;;;4.95;;
23632;SDS011;11993;48.748;9.166;2023-02-28T05:29:58;7.65;;;4.53;;
23632;SDS011;11993;48.748;9.166;2023-02-28T05:32:24;7.03;;;4.35;;
23632;SDS011;11993;48.748;9.166;2023-02-28T05:34:50;10.43;;;4.22;;
23632;SDS011;11993;48.748;9.166;2023-02-28T05:37:15;8.07;;;4.78;;
23632;SDS011;11993;48.748;9.166;2023-02-28T05:39:42;6.93;;;4.50;;
23632;SDS011;11993;48.748;9.166;2023-02-28T05:42:07;7.65;;;4.70;;
23632;SDS011;11993;48.748;9.166;2023-02-28T05:44:34;7.70;;;4.55;;
23632;SDS011;11993;48.748;9.166;2023-02-28T05:47:00;8.70;;;4.57;;
23632;SDS011;11993;48.748;9.166;2023-02-28T05:49:25;6.82;;;4.18;;
23632;SDS011;11993;48.748;9.166;2023-02-28T05:51:51;11.48;;;5.00;;
23632;SDS011;11993;48.748;9.166;2023-02-28T05:54:16;7.43;;;4.90;;
23632;SDS011;11993;48.748;9.166;2023-02-28T05:56:42;7.90;;;5.00;;
23632;SDS011;11993;48.748;9.166;2023-02-28T05:59:10;11.82;;;5.70;;
23632;SDS011;11993;48.748;9.166;2023-02-28T06:01:38;9.27;;;5.88;;
23632;SDS011;11993;48.748;9.166;2023-02-28T06:04:13;8.27;;;5.20;;
23632;SDS011;11993;48.748;9.166;2023-02-28T06:06:42;8.60;;;5.53;;
23632;SDS011;11993;48.748;9.166;2023-02-28T06:09:09;12.88;;;6.07;;
23632;SDS011;11993;48.748;9.166;2023-02-28T06:11:35;10.55;;;6.22;;
23632;SDS011;11993;48.748;9.166;2023-02-28T06:14:01;9.50;;;5.10;;
23632;SDS011;11993;48.748;9.166;2023-02-28T06:16:30;9.70;;;5.38;;
23632;SDS011;11993;48.748;9.166;2023-02-28T06:18:58;13.38;;;6.47;;
23632;SDS011;11993;48.748;9.166;2023-02-28T06:21:25;9.82;;;6.65;;
23632;SDS011;11993;48.748;9.166;2023-02-28T06:23:52;14.45;;;5.55;;
23632;SDS011;11993;48.748;9.166;2023-02-28T06:26:18;8.77;;;5.90;;
23632;SDS011;11993;48.748;9.166;2023-02-28T06:28:44;10.40;;;6.18;;
23632;SDS011;11993;48.748;9.166;2023-02-28T06:31:11;20.30;;;10.40;;
23632;SDS011;11993;48.748;9.166;2023-02-28T06:33:39;9.45;;;6.32;;
23632;SDS011;11993;48.748;9.166;2023-02-28T06:36:08;40.38;;;20.50;;
23632;SDS011;11993;48.748;9.166;2023-02-28T06:38:35;21.02;;;11.00;;
23632;SDS011;11993;48.748;9.166;2023-02-28T06:41:03;12.27;;;7.25;;
23632;SDS011;11993;48.748;9.166;2023-02-28T06:43:29;9.90;;;6.28;;
23632;SDS011;11993;48.748;9.166;2023-02-28T06:45:57;9.80;;;5.47;;
23632;SDS011;11993;48.748;9.166;2023-02-28T06:48:25;11.35;;;6.85;;
23632;SDS011;11993;48.748;9.166;2023-02-28T06:50:51;11.57;;;6.95;;
23632;SDS011;11993;48.748;9.166;2023-02-28T06:53:17;9.20;;;5.93;;
23632;SDS011;11993;48.748;9.166;2023-02-28T06:55:42;15.13;;;6.30;;
23632;SDS011;11993;48.748;9.166;2023-02-28T06:58:08;13.15;;;6.53;;
23632;SDS011;11993;48.748;9.166;2023-02-28T07:00:41;9.57;;;5.93;;
23632;SDS011;11993;48.748;9.166;2023-02-28T07:03:07;10.02;;;6.28;;
23632;SDS011;11993;48.748;9.166;2023-02-28T07:05:36;9.00;;;6.22;;
23632;SDS011;11993;48.748;9.166;2023-02-28T07:08:21;12.00;;;6.50;;
23632;SDS011;11993;48.748;9.166;2023-02-28T07:10:51;9.93;;;6.35;;
23632;SDS011;11993;48.748;9.166;2023-02-28T07:13:17;13.30;;;7.05;;
23632;SDS011;11993;48.748;9.166;2023-02-28T07:15:43;9.43;;;5.85;;
23632;SDS011;11993;48.748;9.166;2023-02-28T07:18:08;10.65;;;6.50;;
23632;SDS011;11993;48.748;9.166;2023-02-28T07:20:34;10.90;;;6.80;;
23632;SDS011;11993;48.748;9.166;2023-02-28T07:23:00;12.68;;;7.25;;
23632;SDS011;11993;48.748;9.166;2023-02-28T07:25:26;11.85;;;6.90;;
23632;SDS011;11993;48.748;9.166;2023-02-28T07:27:53;10.07;;;6.30;;
23632;SDS011;11993;48.748;9.166;2023-02-28T07:30:20;11.30;;;6.93;;
23632;SDS011;11993;48.748;9.166;2023-02-28T07:32:45;10.82;;;6.75;;
23632;SDS011;11993;48.748;9.166;2023-02-28T07:35:11;10.85;;;6.88;;
23632;SDS011;11993;48.748;9.166;2023-02-28T07:37:37;10.52;;;7.25;;
23632;SDS011;11993;48.748;9.166;2023-02-28T07:40:06;36.08;;;18.30;;
23632;SDS011;11993;48.748;9.166;2023-02-28T07:42:35;27.30;;;12.02;;
23632;SDS011;11993;48.748;9.166;2023-02-28T07:45:00;13.77;;;6.85;;
23632;SDS011;11993;48.748;9.166;2023-02-28T07:47:28;12.57;;;7.70;;
23632;SDS011;11993;48.748;9.166;2023-02-28T07:49:55;11.27;;;7.05;;
23632;SDS011;11993;48.748;9.166;2023-02-28T07:52:21;11.65;;;7.30;;
23632;SDS011;11993;48.748;9.166;2023-02-28T07:54:48;14.65;;;7.22;;
23632;SDS011;11993;48.748;9.166;2023-02-28T07:57:14;11.20;;;6.88;;
23632;SDS011;11993;48.748;9.166;2023-02-28T07:59:41;12.98;;;7.18;;
23632;SDS011;11993;48.748;9.166;2023-02-28T08:02:12;12.23;;;7.55;;
23632;SDS011;11993;48.748;9.166;2023-02-28T08:04:39;17.17;;;8.25;;
23632;SDS011;11993;48.748;9.166;2023-02-28T08:07:05;9.77;;;6.53;;
23632;SDS011;11993;48.748;9.166;2023-02-28T08:09:30;15.85;;;7.28;;
23632;SDS011;11993;48.748;9.166;2023-02-28T08:11:56;11.15;;;7.50;;
23632;SDS011;11993;48.748;9.166;2023-02-28T08:14:22;11.32;;;7.57;;
23632;SDS011;11993;48.748;9.166;2023-02-28T08:16:47;11.13;;;7.03;;
23632;SDS011;11993;48.748;9.166;2023-02-28T08:19:13;11.93;;;7.00;;
23632;SDS011;11993;48.748;9.166;2023-02-28T08:21:38;12.95;;;6.65;;
23632;SDS011;11993;48.748;9.166;2023-02-28T08:24:05;12.57;;;7.50;;
23632;SDS011;11993;48.748;9.166;2023-02-28T08:26:31;12.05;;;7.97;;
23632;SDS011;11993;48.748;9.166;2023-02-28T08:28:56;16.38;;;7.82;;
23632;SDS011;11993;48.748;9.166;2023-02-28T08:31:22;13.93;;;7.45;;
23632;SDS011;11993;48.748;9.166;2023-02-28T08:33:48;12.35;;;7.40;;
23632;SDS011;11993;48.748;9.166;2023-02-28T08:36:15;13.15;;;7.88;;
23632;SDS011;11993;48.748;9.166;2023-02-28T08:38:41;13.68;;;8.45;;
23632;SDS011;11993;48.748;9.166;2023-02-28T08:41:07;12.65;;;7.85;;
23632;SDS011;11993;48.748;9.166;2023-02-28T08:43:35;16.33;;;7.72;;
23632;SDS011;11993;48.748;9.166;2023-02-28T08:46:01;12.80;;;8.02;;
23632;SDS011;11993;48.748;9.166;2023-02-28T08:48:28;10.93;;;7.75;;
23632;SDS011;11993;48.748;9.166;2023-02-28T08:50:56;11.88;;;7.70;;
23632;SDS011;11993;48.748;9.166;2023-02-28T08:53:22;12.68;;;7.32;;
23632;SDS011;11993;48.748;9.166;2023-02-28T08:55:54;14.45;;;7.88;;
23632;SDS011;11993;48.748;9.166;2023-02-28T08:58:41;12.77;;;7.50;;
23632;SDS011;11993;48.748;9.166;2023-02-28T09:01:09;13.80;;;7.90;;
23632;SDS011;11993;48.748;9.166;2023-02-28T09:03:36;17.90;;;9.63;;
23632;SDS011;11993;48.748;9.166;2023-02-28T09:06:02;14.07;;;7.70;;
23632;SDS011;11993;48.748;9.166;2023-02-28T09:08:29;13.95;;;8.02;;
23632;SDS011;11993;48.748;9.166;2023-02-28T09:10:56;11.20;;;7.78;;
23632;SDS011;11993;48.748;9.166;2023-02-28T09:13:23;11.77;;;7.68;;
23632;SDS011;11993;48.748;9.166;2023-02-28T09:15:49;13.90;;;8.48;;
23632;SDS011;11993;48.748;9.166;2023-02-28T09:18:15;16.45;;;8.10;;
23632;SDS011;11993;48.748;9.166;2023-02-28T09:20:41;14.43;;;8.43;;
23632;SDS011;11993;48.748;9.166;2023-02-28T09:23:08;17.63;;;8.70;;
23632;SDS011;11993;48.748;9.166;2023-02-28T09:25:36;12.38;;;7.88;;
23632;SDS011;11993;48.748;9.166;2023-02-28T09:28:03;15.95;;;7.90;;
23632;SDS011;11993;48.748;9.166;2023-02-28T09:30:31;15.88;;;8.45;;
23632;SDS011;11993;48.748;9.166;2023-02-28T09:32:57;15.73;;;8.32;;
23632;SDS011;11993;48.748;9.166;2023-02-28T09:35:23;13.18;;;8.25;;
23632;SDS011;11993;48.748;9.166;2023-02-28T09:37:51;13.52;;;8.32;;
23632;SDS011;11993;48.748;9.166;2023-02-28T09:40:18;14.70;;;8.30;;
23632;SDS011;11993;48.748;9.166;2023-02-28T09:42:47;12.27;;;8.10;;
23632;SDS011;11993;48.748;9.166;2023-02-28T09:45:31;14.20;;;8.18;;
23632;SDS011;11993;48.748;9.166;2023-02-28T09:48:03;12.95;;;8.30;;
23632;SDS011;11993;48.748;9.166;2023-02-28T09:50:44;14.27;;;9.25;;
23632;SDS011;11993;48.748;9.166;2023-02-28T09:53:28;11.93;;;7.75;;
23632;SDS011;11993;48.748;9.166;2023-02-28T09:56:01;14.45;;;8.77;;
23632;SDS011;11993;48.748;9.166;2023-02-28T10:04:20;12.45;;;7.80;;
23632;SDS011;11993;48.748;9.166;2023-02-28T10:06:57;15.95;;;8.18;;
23632;SDS011;11993;48.748;9.166;2023-02-28T10:09:32;12.15;;;8.32;;
23632;SDS011;11993;48.748;9.166;2023-02-28T10:12:02;14.50;;;8.15;;
23632;SDS011;11993;48.748;9.166;2023-02-28T10:14:30;16.13;;;8.40;;
23632;SDS011;11993;48.748;9.166;2023-02-28T10:17:02;12.18;;;8.15;;
23632;SDS011;11993;48.748;9.166;2023-02-28T10:19:42;14.27;;;8.18;;
23632;SDS011;11993;48.748;9.166;2023-02-28T10:22:49;15.52;;;9.23;;
23632;SDS011;11993;48.748;9.166;2023-02-28T10:25:32;15.70;;;8.05;;
23632;SDS011;11993;48.748;9.166;2023-02-28T10:28:13;15.75;;;8.30;;
23632;SDS011;11993;48.748;9.166;2023-02-28T10:30:45;12.68;;;7.88;;
23632;SDS011;11993;48.748;9.166;2023-02-28T10:33:23;14.20;;;8.70;;
23632;SDS011;11993;48.748;9.166;2023-02-28T10:38:32;15.50;;;8.32;;
23632;SDS011;11993;48.748;9.166;2023-02-28T10:41:04;11.88;;;8.05;;
23632;SDS011;11993;48.748;9.166;2023-02-28T10:43:29;12.23;;;8.15;;
23632;SDS011;11993;48.748;9.166;2023-02-28T10:45:56;14.73;;;8.93;;
23632;SDS011;11993;48.748;9.166;2023-02-28T10:50:52;17.30;;;9.13;;
23632;SDS011;11993;48.748;9.166;2023-02-28T10:58:27;21.05;;;8.90;;
23632;SDS011;11993;48.748;9.166;2023-02-28T11:00:54;18.17;;;8.48;;
23632;SDS011;11993;48.748;9.166;2023-02-28T11:03:24;15.75;;;9.15;;
23632;SDS011;11993;48.748;9.166;2023-02-28T11:05:55;18.13;;;8.70;;
23632;SDS011;11993;48.748;9.166;2023-02-28T11:08:21;17.63;;;8.68;;
23632;SDS011;11993;48.748;9.166;2023-02-28T11:10:48;17.27;;;8.43;;
23632;SDS011;11993;48.748;9.166;2023-02-28T11:13:21;11.93;;;8.32;;
23632;SDS011;11993;48.748;9.166;2023-02-28T11:15:53;13.30;;;8.75;;
23632;SDS011;11993;48.748;9.166;2023-02-28T11:18:22;14.38;;;8.73;;
23632;SDS011;11993;48.748;9.166;2023-02-28T11:20:54;11.75;;;8.50;;
23632;SDS011;11993;48.748;9.166;2023-02-28T11:23:23;16.77;;;9.43;;
23632;SDS011;11993;48.748;9.166;2023-02-28T11:25:52;21.85;;;13.15;;
23632;SDS011;11993;48.748;9.166;2023-02-28T11:28:35;11.07;;;8.05;;
23632;SDS011;11993;48.748;9.166;2023-02-28T11:36:43;13.77;;;7.80;;
23632;SDS011;11993;48.748;9.166;2023-02-28T11:39:09;11.40;;;7.35;;
23632;SDS011;11993;48.748;9.166;2023-02-28T11:47:07;11.98;;;8.07;;
23632;SDS011;11993;48.748;9.166;2023-02-28T11:55:39;21.13;;;12.57;;
23632;SDS011;11993;48.748;9.166;2023-02-28T11:58:23;19.40;;;12.05;;
23632;SDS011;11993;48.748;9.166;2023-02-28T12:06:52;15.82;;;8.18;;
23632;SDS011;11993;48.748;9.166;2023-02-28T12:09:44;14.70;;;7.40;;
23632;SDS011;11993;48.748;9.166;2023-02-28T12:12:18;12.60;;;7.45;;
23632;SDS011;11993;48.748;9.166;2023-02-28T12:17:56;10.43;;;6.78;;
23632;SDS011;11993;48.748;9.166;2023-02-28T12:21:36;11.27;;;7.50;;
23632;SDS011;11993;48.748;9.166;2023-02-28T12:26:24;14.13;;;7.75;;
23632;SDS011;11993;48.748;9.166;2023-02-28T12:31:56;13.25;;;7.40;;
23632;SDS011;11993;48.748;9.166;2023-02-28T12:34:37;8.98;;;6.47;;
23632;SDS011;11993;48.748;9.166;2023-02-28T12:37:07;11.70;;;7.43;;
23632;SDS011;11993;48.748;9.166;2023-02-28T12:39:41;11.18;;;7.07;;
23632;SDS011;11993;48.748;9.166;2023-02-28T12:42:17;11.18;;;7.18;;
23632;SDS011;11993;48.748;9.166;2023-02-28T12:44:52;11.80;;;7.25;;
23632;SDS011;11993;48.748;9.166;2023-02-28T12:47:27;9.45;;;6.63;;
23632;SDS011;11993;48.748;9.166;2023-02-28T12:49:58;11.63;;;7.60;;
23632;SDS011;11993;48.748;9.166;2023-02-28T12:58:36;22.65;;;14.98;;
23632;SDS011;11993;48.748;9.166;2023-02-28T13:06:59;11.88;;;7.60;;
23632;SDS011;11993;48.748;9.166;2023-02-28T13:09:51;10.75;;;7.53;;
23632;SDS011;11993;48.748;9.166;2023-02-28T13:12:22;11.73;;;7.30;;
23632;SDS011;11993;48.748;9.166;2023-02-28T13:14:49;13.30;;;7.55;;
23632;SDS011;11993;48.748;9.166;2023-02-28T13:17:19;12.23;;;7.93;;
23632;SDS011;11993;48.748;9.166;2023-02-28T13:25:49;9.93;;;6.80;;
23632;SDS011;11993;48.748;9.166;2023-02-28T13:27:50;10.02;;;7.15;;
23632;SDS011;11993;48.748;9.166;2023-02-28T13:33:30;9.38;;;6.97;;
23632;SDS011;11993;48.748;9.166;2023-02-28T13:38:41;10.43;;;7.18;;
23632;SDS011;11993;48.748;9.166;2023-02-28T13:46:29;11.13;;;7.20;;
23632;SDS011;11993;48.748;9.166;2023-02-28T13:48:55;12.73;;;7.18;;
23632;SDS011;11993;48.748;9.166;2023-02-28T13:51:38;10.63;;;6.72;;
23632;SDS011;11993;48.748;9.166;2023-02-28T14:05:21;10.52;;;7.03;;
23632;SDS011;11993;48.748;9.166;2023-02-28T14:07:52;13.35;;;7.30;;
23632;SDS011;11993;48.748;9.166;2023-02-28T14:10:23;11.63;;;8.00;;
23632;SDS011;11993;48.748;9.166;2023-02-28T14:16:09;10.88;;;6.80;;
23632;SDS011;11993;48.748;9.166;2023-02-28T14:18:37;10.05;;;6.70;;
23632;SDS011;11993;48.748;9.166;2023-02-28T14:23:42;10.15;;;7.07;;
23632;SDS011;11993;48.748;9.166;2023-02-28T14:29:17;10.85;;;6.50;;
23632;SDS011;11993;48.748;9.166;2023-02-28T14:32:10;9.88;;;6.93;;
23632;SDS011;11993;48.748;9.166;2023-02-28T14:37:15;9.82;;;6.53;;
23632;SDS011;11993;48.748;9.166;2023-02-28T14:39:45;10.25;;;6.57;;
23632;SDS011;11993;48.748;9.166;2023-02-28T14:45:02;9.18;;;6.57;;
23632;SDS011;11993;48.748;9.166;2023-02-28T14:47:30;9.13;;;7.13;;
23632;SDS011;11993;48.748;9.166;2023-02-28T14:49:58;12.25;;;6.72;;
23632;SDS011;11993;48.748;9.166;2023-02-28T14:52:27;9.05;;;6.50;;
23632;SDS011;11993;48.748;9.166;2023-02-28T14:55:03;11.68;;;7.55;;
23632;SDS011;11993;48.748;9.166;2023-02-28T14:57:34;9.05;;;6.80;;
23632;SDS011;11993;48.748;9.166;2023-02-28T15:00:07;12.13;;;7.18;;
23632;SDS011;11993;48.748;9.166;2023-02-28T15:02:46;10.02;;;6.93;;
23632;SDS011;11993;48.748;9.166;2023-02-28T15:07:37;13.18;;;6.97;;
23632;SDS011;11993;48.748;9.166;2023-02-28T15:10:07;10.75;;;7.25;;
23632;SDS011;11993;48.748;9.166;2023-02-28T15:12:41;12.27;;;7.22;;
23632;SDS011;11993;48.748;9.166;2023-02-28T15:15:17;10.63;;;7.07;;
23632;SDS011;11993;48.748;9.166;2023-02-28T15:17:48;9.88;;;7.40;;
23632;SDS011;11993;48.748;9.166;2023-02-28T15:20:20;8.80;;;6.68;;
23632;SDS011;11993;48.748;9.166;2023-02-28T15:22:47;11.15;;;6.90;;
23632;SDS011;11993;48.748;9.166;2023-02-28T15:25:17;9.63;;;6.80;;
23632;SDS011;11993;48.748;9.166;2023-02-28T15:27:46;8.57;;;6.38;;
23632;SDS011;11993;48.748;9.166;2023-02-28T15:30:17;9.80;;;6.68;;
23632;SDS011;11993;48.748;9.166;2023-02-28T15:33:01;9.52;;;7.30;;
23632;SDS011;11993;48.748;9.166;2023-02-28T15:35:42;10.25;;;7.40;;
23632;SDS011;11993;48.748;9.166;2023-02-28T15:38:22;10.55;;;7.85;;
23632;SDS011;11993;48.748;9.166;2023-02-28T15:40:51;24.55;;;14.70;;
23632;SDS011;11993;48.748;9.166;2023-02-28T15:43:29;10.02;;;7.30;;
23632;SDS011;11993;48.748;9.166;2023-02-28T15:48:28;9.55;;;7.07;;
23632;SDS011;11993;48.748;9.166;2023-02-28T15:51:06;10.50;;;6.90;;
23632;SDS011;11993;48.748;9.166;2023-02-28T15:53:51;9.20;;;6.97;;
23632;SDS011;11993;48.748;9.166;2023-02-28T15:56:28;9.45;;;7.13;;
23632;SDS011;11993;48.748;9.166;2023-02-28T15:58:59;11.35;;;7.40;;
23632;SDS011;11993;48.748;9.166;2023-02-28T16:01:32;11.07;;;6.30;;
23632;SDS011;11993;48.748;9.166;2023-02-28T16:04:00;11.25;;;6.93;;
23632;SDS011;11993;48.748;9.166;2023-02-28T16:06:35;10.02;;;6.95;;
23632;SDS011;11993;48.748;9.166;2023-02-28T16:09:03;10.82;;;7.30;;
23632;SDS011;11993;48.748;9.166;2023-02-28T16:11:33;21.80;;;15.23;;
23632;SDS011;11993;48.748;9.166;2023-02-28T16:14:00;9.90;;;8.02;;
23632;SDS011;11993;48.748;9.166;2023-02-28T16:16:26;10.32;;;7.90;;
23632;SDS011;11993;48.748;9.166;2023-02-28T16:18:52;10.45;;;7.80;;
23632;SDS011;11993;48.748;9.166;2023-02-28T16:21:18;15.45;;;8.07;;
23632;SDS011;11993;48.748;9.166;2023-02-28T16:23:43;12.45;;;7.82;;
23632;SDS011;11993;48.748;9.166;2023-02-28T16:26:10;16.38;;;8.48;;
23632;SDS011;11993;48.748;9.166;2023-02-28T16:28:44;12.15;;;7.80;;
23632;SDS011;11993;48.748;9.166;2023-02-28T16:31:10;11.68;;;8.05;;
23632;SDS011;11993;48.748;9.166;2023-02-28T16:33:41;15.75;;;8.52;;
23632;SDS011;11993;48.748;9.166;2023-02-28T16:36:09;12.88;;;8.30;;
23632;SDS011;11993;48.748;9.166;2023-02-28T16:38:38;12.07;;;8.63;;
23632;SDS011;11993;48.748;9.166;2023-02-28T16:41:03;16.88;;;9.07;;
23632;SDS011;11993;48.748;9.166;2023-02-28T16:43:30;9.73;;;7.53;;
23632;SDS011;11993;48.748;9.166;2023-02-28T16:45:57;12.13;;;7.90;;
23632;SDS011;11993;48.748;9.166;2023-02-28T16:48:24;13.55;;;8.40;;
23632;SDS011;11993;48.748;9.166;2023-02-28T16:50:50;13.55;;;8.27;;
23632;SDS011;11993;48.748;9.166;2023-02-28T16:53:16;10.55;;;7.47;;
23632;SDS011;11993;48.748;9.166;2023-02-28T16:55:42;9.85;;;7.40;;
23632;SDS011;11993;48.748;9.166;2023-02-28T16:58:11;10.48;;;8.13;;
23632;SDS011;11993;48.748;9.166;2023-02-28T17:00:39;11.13;;;8.25;;
23632;SDS011;11993;48.748;9.166;2023-02-28T17:03:05;12.02;;;7.97;;
23632;SDS011;11993;48.748;9.166;2023-02-28T17:05:41;11.13;;;7.97;;
23632;SDS011;11993;48.748;9.166;2023-02-28T17:08:06;12.15;;;9.02;;
23632;SDS011;11993;48.748;9.166;2023-02-28T17:10:33;12.82;;;7.97;;
23632;SDS011;11993;48.748;9.166;2023-02-28T17:12:59;13.18;;;8.65;;
23632;SDS011;11993;48.748;9.166;2023-02-28T17:15:24;12.38;;;8.45;;
23632;SDS011;11993;48.748;9.166;2023-02-28T17:17:50;11.32;;;8.10;;
23632;SDS011;11993;48.748;9.166;2023-02-28T17:20:17;17.35;;;9.20;;
23632;SDS011;11993;48.748;9.166;2023-02-28T17:22:47;16.48;;;9.80;;
23632;SDS011;11993;48.748;9.166;2023-02-28T17:25:13;32.47;;;19.15;;